createdAt,value
2018-07-12T00:00:12.132Z,97891.00
2018-07-12T00:04:13.259Z,97900.00
2018-07-12T00:08:14.367Z,97891.00
2018-07-12T00:12:15.508Z,97878.00
2018-07-12T00:16:16.782Z,97882.00
2018-07-12T00:20:17.911Z,97882.00
2018-07-12T00:24:19.034Z,97883.00
2018-07-12T00:28:20.167Z,97882.00
2018-07-12T00:32:21.304Z,97878.00
2018-07-12T00:36:22.440Z,97880.00
2018-07-12T00:40:23.571Z,97881.00
2018-07-12T00:44:24.680Z,97885.00
2018-07-12T00:48:25.830Z,97888.00
2018-07-12T00:52:26.963Z,97894.00
2018-07-12T00:56:28.111Z,97892.00
2018-07-12T01:00:29.245Z,97902.00
2018-07-12T01:04:30.399Z,97896.00
2018-07-12T01:08:31.514Z,97889.00
2018-07-12T01:12:32.619Z,97894.00
2018-07-12T01:16:33.755Z,97891.00
2018-07-12T01:20:35.015Z,97893.00
2018-07-12T01:24:36.233Z,97891.00
2018-07-12T01:28:37.355Z,97901.00
2018-07-12T01:32:38.486Z,97892.00
2018-07-12T01:36:39.566Z,97895.00
2018-07-12T01:40:40.703Z,97902.00
2018-07-12T01:44:41.827Z,97896.00
2018-07-12T01:48:42.942Z,97899.00
2018-07-12T01:52:44.738Z,97902.00
2018-07-12T01:56:45.893Z,97911.00
2018-07-12T02:00:47.372Z,97892.00
2018-07-12T02:04:48.516Z,97887.00
2018-07-12T02:08:49.621Z,97893.00
2018-07-12T02:12:50.774Z,97893.00
2018-07-12T02:16:51.890Z,97897.00
2018-07-12T02:20:53.005Z,97905.00
2018-07-12T02:24:54.218Z,97905.00
2018-07-12T02:28:55.683Z,97910.00
2018-07-12T02:32:56.795Z,97911.00
2018-07-12T02:36:57.930Z,97914.00
2018-07-12T02:40:59.043Z,97902.00
2018-07-12T02:45:00.173Z,97899.00
2018-07-12T02:49:01.286Z,97900.00
2018-07-12T02:53:02.661Z,97912.00
2018-07-12T02:57:03.778Z,97909.00
2018-07-12T03:01:04.879Z,97912.00
2018-07-12T03:05:06.013Z,97918.00
2018-07-12T03:09:07.824Z,97916.00
2018-07-12T03:13:08.911Z,97906.00
2018-07-12T03:17:10.039Z,97910.00
2018-07-12T03:21:11.182Z,97911.00
2018-07-12T03:25:12.475Z,97923.00
2018-07-12T03:29:13.573Z,97927.00
2018-07-12T03:33:14.799Z,97928.00
2018-07-12T03:37:15.919Z,97919.00
2018-07-12T03:41:17.050Z,97934.00
2018-07-12T03:45:18.179Z,97934.00
2018-07-12T03:49:19.291Z,97935.00
2018-07-12T03:53:20.435Z,97941.00
2018-07-12T03:57:21.691Z,97943.00
2018-07-12T04:01:22.824Z,97931.00
2018-07-12T04:05:23.948Z,97928.00
2018-07-12T04:09:25.088Z,97946.00
2018-07-12T04:13:26.234Z,97942.00
2018-07-12T04:17:30.315Z,97936.00
2018-07-12T04:21:31.465Z,97943.00
2018-07-12T04:25:32.595Z,97936.00
2018-07-12T04:29:33.723Z,97942.00
2018-07-12T04:33:34.838Z,97934.00
2018-07-12T04:37:36.030Z,97937.00
2018-07-12T04:41:37.174Z,97950.00
2018-07-12T04:45:38.295Z,97948.00
2018-07-12T04:49:39.408Z,97956.00
2018-07-12T04:53:40.519Z,97948.00
2018-07-12T04:57:41.652Z,97950.00
2018-07-12T05:01:42.810Z,97954.00
2018-07-12T05:05:43.921Z,97948.00
2018-07-12T05:09:45.052Z,97949.00
2018-07-12T05:13:46.248Z,97954.00
2018-07-12T05:17:47.388Z,97951.00
2018-07-12T05:21:48.525Z,97953.00
2018-07-12T05:25:49.635Z,97952.00
2018-07-12T05:29:50.759Z,97955.00
2018-07-12T05:33:51.874Z,97951.00
2018-07-12T05:37:54.011Z,97951.00
2018-07-12T05:41:56.163Z,97964.00
2018-07-12T05:45:58.447Z,97966.00
2018-07-12T05:50:00.588Z,97968.00
2018-07-12T05:54:02.919Z,97969.00
2018-07-12T05:58:05.511Z,97979.00
2018-07-12T06:02:21.538Z,97982.00
2018-07-12T06:06:23.708Z,97981.00
2018-07-12T06:10:26.173Z,97978.00
2018-07-12T06:14:28.383Z,97985.00
2018-07-12T06:18:30.580Z,97990.00
2018-07-12T06:22:32.920Z,97990.00
2018-07-12T06:26:35.105Z,97990.00
2018-07-12T06:30:37.267Z,97995.00
2018-07-12T06:34:40.111Z,98007.00
2018-07-12T06:38:42.250Z,98011.00
2018-07-12T06:42:44.495Z,98015.00
2018-07-12T06:46:46.770Z,98021.00
2018-07-12T06:50:48.920Z,98024.00
2018-07-12T06:54:51.140Z,98025.00
2018-07-12T06:58:53.396Z,98034.00
2018-07-12T07:02:57.593Z,98033.00
2018-07-12T07:06:59.747Z,98038.00
2018-07-12T07:11:01.911Z,98042.00
2018-07-12T07:15:04.184Z,98048.00
2018-07-12T07:19:06.399Z,98044.00
2018-07-12T07:23:09.370Z,98045.00
2018-07-12T07:27:11.529Z,98047.00
2018-07-12T07:31:14.672Z,98050.00
2018-07-12T07:35:17.056Z,98055.00
2018-07-12T07:39:19.286Z,98059.00
2018-07-12T07:43:21.637Z,98062.00
2018-07-12T07:47:23.765Z,98064.00
2018-07-12T07:51:25.951Z,98069.00
2018-07-12T07:55:28.179Z,98072.00
2018-07-12T07:59:30.395Z,98071.00
2018-07-12T08:03:32.553Z,98072.00
2018-07-12T08:07:34.727Z,98075.00
2018-07-12T08:11:36.923Z,98079.00
2018-07-12T08:15:39.092Z,98073.00
2018-07-12T08:19:41.465Z,98078.00
2018-07-12T08:23:44.827Z,98077.00
2018-07-12T08:27:58.669Z,98085.00
2018-07-12T08:32:01.954Z,98089.00
2018-07-12T08:36:04.322Z,98091.00
2018-07-12T08:40:06.488Z,98094.00
2018-07-12T08:44:08.635Z,98092.00
2018-07-12T08:48:10.819Z,98087.00
2018-07-12T08:52:13.043Z,98092.00
2018-07-12T08:56:15.225Z,98083.00
2018-07-12T09:00:17.412Z,98087.00
2018-07-12T09:04:19.643Z,98089.00
2018-07-12T09:08:21.799Z,98090.00
2018-07-12T09:12:24.064Z,98080.00
2018-07-12T09:16:26.217Z,98078.00
2018-07-12T09:20:28.480Z,98078.00
2018-07-12T09:24:30.968Z,98084.00
2018-07-12T09:28:33.132Z,98087.00
2018-07-12T09:32:35.284Z,98089.00
2018-07-12T09:36:37.458Z,98098.00
2018-07-12T09:40:39.637Z,98106.00
2018-07-12T09:44:42.215Z,98101.00
2018-07-12T09:48:45.652Z,98100.00
2018-07-12T09:52:47.840Z,98096.00
2018-07-12T09:57:01.270Z,98104.00
2018-07-12T10:01:09.170Z,98110.00
2018-07-12T10:05:17.146Z,98117.00
2018-07-12T10:09:25.002Z,98106.00
2018-07-12T10:13:31.873Z,98109.00
2018-07-12T10:17:41.578Z,98109.00
2018-07-12T10:21:43.735Z,98112.00
2018-07-12T10:25:45.900Z,98118.00
2018-07-12T10:29:48.076Z,98120.00
2018-07-12T10:33:50.326Z,98114.00
2018-07-12T10:37:52.500Z,98124.00
2018-07-12T10:41:54.635Z,98127.00
2018-07-12T10:45:56.795Z,98114.00
2018-07-12T10:49:58.942Z,98109.00
2018-07-12T10:54:01.088Z,98107.00
2018-07-12T10:58:03.295Z,98105.00
2018-07-12T11:02:05.558Z,98097.00
2018-07-12T11:06:07.745Z,98095.00
2018-07-12T11:10:09.903Z,98096.00
2018-07-12T11:14:12.106Z,98103.00
2018-07-12T11:18:14.479Z,98107.00
2018-07-12T11:22:16.974Z,98088.00
2018-07-12T11:26:19.222Z,98114.00
2018-07-12T11:30:21.420Z,98104.00
2018-07-12T11:34:23.562Z,98106.00
2018-07-12T11:38:25.736Z,98101.00
2018-07-12T11:42:27.906Z,98105.00
2018-07-12T11:46:30.067Z,98103.00
2018-07-12T11:50:32.288Z,98105.00
2018-07-12T11:54:34.475Z,98108.00
2018-07-12T11:58:36.708Z,98114.00
2018-07-12T12:02:38.903Z,98106.00
2018-07-12T12:06:41.061Z,98114.00
2018-07-12T12:10:44.187Z,98111.00
2018-07-12T12:14:46.405Z,98114.00
2018-07-12T12:18:48.660Z,98118.00
2018-07-12T12:22:50.865Z,98109.00
2018-07-12T12:26:53.034Z,98117.00
2018-07-12T12:30:55.948Z,98121.00
2018-07-12T12:34:58.193Z,98121.00
2018-07-12T12:39:00.403Z,98111.00
2018-07-12T12:43:02.604Z,98107.00
2018-07-12T12:47:05.623Z,98111.00
2018-07-12T12:51:07.900Z,98117.00
2018-07-12T12:55:10.385Z,98114.00
2018-07-12T12:59:12.577Z,98111.00
2018-07-12T13:03:14.764Z,98113.00
2018-07-12T13:07:17.557Z,98113.00
2018-07-12T13:11:20.671Z,98118.00
2018-07-12T13:15:22.929Z,98111.00
2018-07-12T13:19:25.202Z,98112.00
2018-07-12T13:23:27.693Z,98109.00
2018-07-12T13:27:29.956Z,98108.00
2018-07-12T13:31:32.173Z,98103.00
2018-07-12T13:35:34.372Z,98106.00
2018-07-12T13:39:36.644Z,98102.00
2018-07-12T13:43:38.910Z,98094.00
2018-07-12T13:47:41.176Z,98095.00
2018-07-12T13:51:44.247Z,98099.00
2018-07-12T13:55:46.451Z,98091.00
2018-07-12T13:59:48.666Z,98089.00
2018-07-12T14:03:51.237Z,98088.00
2018-07-12T14:07:53.567Z,98078.00
2018-07-12T14:11:55.784Z,98083.00
2018-07-12T14:15:58.010Z,98089.00
2018-07-12T14:20:00.295Z,98081.00
2018-07-12T14:24:02.562Z,98082.00
2018-07-12T14:28:04.794Z,98081.00
2018-07-12T14:32:07.013Z,98080.00
2018-07-12T14:36:09.205Z,98083.00
2018-07-12T14:40:11.417Z,98085.00
2018-07-12T14:44:13.696Z,98082.00
2018-07-12T14:48:15.969Z,98075.00
2018-07-12T14:52:18.290Z,98080.00
2018-07-12T14:56:20.560Z,98074.00
2018-07-12T15:00:23.084Z,98067.00
2018-07-12T15:04:25.449Z,98075.00
2018-07-12T15:08:27.693Z,98072.00
2018-07-12T15:12:29.990Z,98075.00
2018-07-12T15:16:32.257Z,98072.00
2018-07-12T15:20:34.440Z,98071.00
2018-07-12T15:24:37.484Z,98072.00
2018-07-12T15:28:39.715Z,98064.00
2018-07-12T15:32:41.968Z,98061.00
2018-07-12T15:36:44.185Z,98065.00
2018-07-12T15:40:46.449Z,98057.00
2018-07-12T15:44:48.745Z,98050.00
2018-07-12T15:48:51.006Z,98052.00
2018-07-12T15:52:53.525Z,98051.00
2018-07-12T15:56:55.856Z,98059.00
2018-07-12T16:00:58.121Z,98055.00
2018-07-12T16:05:00.564Z,98049.00
2018-07-12T16:09:03.828Z,98059.00
2018-07-12T16:13:06.197Z,98052.00
2018-07-12T16:17:09.189Z,98050.00
2018-07-12T16:21:12.220Z,98050.00
2018-07-12T16:25:14.461Z,98053.00
2018-07-12T16:29:16.669Z,98055.00
2018-07-12T16:33:18.943Z,98043.00
2018-07-12T16:37:21.191Z,98056.00
2018-07-12T16:41:23.465Z,98051.00
2018-07-12T16:45:25.782Z,98054.00
2018-07-12T16:49:27.994Z,98048.00
2018-07-12T16:53:30.254Z,98050.00
2018-07-12T16:57:32.671Z,98044.00
2018-07-12T17:01:34.904Z,98048.00
2018-07-12T17:05:37.229Z,98054.00
2018-07-12T17:09:39.540Z,98052.00
2018-07-12T17:13:41.795Z,98048.00
2018-07-12T17:17:44.105Z,98046.00
2018-07-12T17:21:47.372Z,98049.00
2018-07-12T17:25:49.771Z,98051.00
2018-07-12T17:29:51.931Z,98056.00
2018-07-12T17:33:54.399Z,98048.00
2018-07-12T17:37:56.563Z,98060.00
2018-07-12T17:41:58.754Z,98067.00
2018-07-12T17:46:00.983Z,98070.00
2018-07-12T17:50:03.550Z,98066.00
2018-07-12T17:54:05.840Z,98078.00
2018-07-12T17:58:08.025Z,98080.00
2018-07-12T18:02:10.331Z,98078.00
2018-07-12T18:06:12.554Z,98080.00
2018-07-12T18:10:15.109Z,98087.00
2018-07-12T18:14:17.315Z,98089.00
2018-07-12T18:18:19.425Z,98093.00
2018-07-12T18:22:21.607Z,98124.00
2018-07-12T18:26:23.795Z,98125.00
2018-07-12T18:30:25.968Z,98140.00
2018-07-12T18:34:28.195Z,98145.00
2018-07-12T18:38:30.551Z,98161.00
2018-07-12T18:42:32.818Z,98158.00
2018-07-12T18:46:35.163Z,98167.00
2018-07-12T18:50:37.341Z,98156.00
2018-07-12T18:54:39.705Z,98159.00
2018-07-12T18:58:41.869Z,98161.00
2018-07-12T19:02:44.186Z,98163.00
2018-07-12T19:06:46.386Z,98164.00
2018-07-12T19:10:48.577Z,98157.00
2018-07-12T19:14:50.791Z,98156.00
2018-07-12T19:18:52.949Z,98143.00
2018-07-12T19:22:55.246Z,98151.00
2018-07-12T19:26:57.627Z,98151.00
2018-07-12T19:30:59.866Z,98149.00
2018-07-12T19:35:02.164Z,98154.00
2018-07-12T19:39:05.776Z,98163.00
2018-07-12T19:43:07.949Z,98158.00
2018-07-12T19:47:10.142Z,98153.00
2018-07-12T19:51:12.336Z,98161.00
2018-07-12T19:55:14.661Z,98162.00
2018-07-12T19:59:17.069Z,98172.00
2018-07-12T20:03:19.262Z,98176.00
2018-07-12T20:07:21.460Z,98179.00
2018-07-12T20:11:23.635Z,98168.00
2018-07-12T20:15:25.907Z,98170.00
2018-07-12T20:19:28.070Z,98165.00
2018-07-12T20:23:30.262Z,98169.00
2018-07-12T20:27:32.499Z,98175.00
2018-07-12T20:31:34.823Z,98175.00
2018-07-12T20:35:37.027Z,98182.00
2018-07-12T20:39:39.191Z,98182.00
2018-07-12T20:43:41.380Z,98184.00
2018-07-12T20:47:43.615Z,98183.00
2018-07-12T20:51:45.808Z,98193.00
2018-07-12T20:55:48.361Z,98191.00
2018-07-12T20:59:50.588Z,98194.00
2018-07-12T21:03:52.775Z,98203.00
2018-07-12T21:07:54.967Z,98208.00
2018-07-12T21:11:57.147Z,98205.00
2018-07-12T21:15:59.315Z,98204.00
2018-07-12T21:20:02.296Z,98207.00
2018-07-12T21:24:04.804Z,98199.00
2018-07-12T21:28:06.988Z,98205.00
2018-07-12T21:32:09.146Z,98207.00
2018-07-12T21:36:11.345Z,98210.00
2018-07-12T21:40:13.885Z,98209.00
2018-07-12T21:44:16.116Z,98215.00
2018-07-12T21:48:18.267Z,98220.00
2018-07-12T21:52:20.439Z,98218.00
2018-07-12T21:56:22.624Z,98217.00
2018-07-12T22:00:24.839Z,98223.00
2018-07-12T22:04:27.009Z,98221.00
2018-07-12T22:08:29.735Z,98222.00
2018-07-12T22:12:31.911Z,98227.00
2018-07-12T22:16:34.056Z,98231.00
2018-07-12T22:20:36.359Z,98226.00
2018-07-12T22:24:38.567Z,98231.00
2018-07-12T22:28:40.794Z,98222.00
2018-07-12T22:32:42.934Z,98215.00
2018-07-12T22:36:45.128Z,98218.00
2018-07-12T22:40:47.298Z,98209.00
2018-07-12T22:44:50.441Z,98213.00
2018-07-12T22:48:52.717Z,98210.00
2018-07-12T22:52:54.815Z,98213.00
2018-07-12T22:56:57.021Z,98210.00
2018-07-12T23:00:59.143Z,98209.00
2018-07-12T23:05:01.313Z,98206.00
2018-07-12T23:13:17.874Z,98212.00
2018-07-12T23:17:20.236Z,98202.00
2018-07-12T23:21:22.379Z,98210.00
2018-07-12T23:25:24.686Z,98209.00
2018-07-12T23:29:26.873Z,98210.00
2018-07-12T23:33:29.068Z,98212.00
2018-07-12T23:37:31.243Z,98209.00
2018-07-12T23:41:33.427Z,98213.00
2018-07-12T23:45:35.559Z,98211.00
2018-07-12T23:49:37.697Z,98208.00
2018-07-12T23:53:39.819Z,98206.00
2018-07-12T23:57:42.024Z,98208.00
